createdAt,value
2022-11-18T00:01:19.605Z,19.50
2022-11-18T00:03:48.868Z,16.80
2022-11-18T00:06:18.563Z,18.13
2022-11-18T00:08:47.271Z,18.52
2022-11-18T00:11:37.460Z,18.08
2022-11-18T00:14:19.552Z,18.00
2022-11-18T00:16:48.311Z,20.05
2022-11-18T00:19:17.028Z,21.42
2022-11-18T00:21:45.277Z,23.83
2022-11-18T00:24:13.785Z,19.08
2022-11-18T00:26:41.862Z,15.50
2022-11-18T00:29:12.616Z,18.88
2022-11-18T00:31:41.266Z,18.05
2022-11-18T00:34:13.334Z,17.50
2022-11-18T00:36:42.025Z,18.60
2022-11-18T00:39:12.520Z,20.02
2022-11-18T00:41:58.431Z,20.30
2022-11-18T00:44:28.593Z,19.95
2022-11-18T00:46:56.849Z,18.10
2022-11-18T00:49:25.691Z,16.65
2022-11-18T00:51:53.865Z,18.88
2022-11-18T00:54:22.625Z,18.30
2022-11-18T00:56:50.798Z,18.52
2022-11-18T00:59:19.430Z,20.58
2022-11-18T01:01:49.319Z,22.88
2022-11-18T01:04:18.395Z,20.20
2022-11-18T01:06:46.508Z,21.42
2022-11-18T01:09:15.173Z,19.80
2022-11-18T01:12:00.860Z,18.02
2022-11-18T01:14:29.207Z,23.65
2022-11-18T01:16:59.018Z,24.58
2022-11-18T01:19:27.652Z,21.27
2022-11-18T01:21:56.676Z,20.20
2022-11-18T01:24:25.165Z,20.67
2022-11-18T01:26:53.365Z,19.05
2022-11-18T01:29:21.997Z,22.25
2022-11-18T01:32:22.245Z,19.13
2022-11-18T01:34:39.730Z,18.35
2022-11-18T01:37:07.896Z,18.05
2022-11-18T01:39:36.434Z,19.35
2022-11-18T01:42:04.596Z,17.30
2022-11-18T01:44:59.088Z,17.30
2022-11-18T01:47:29.995Z,17.48
2022-11-18T01:50:00.557Z,19.67
2022-11-18T01:52:28.812Z,15.88
2022-11-18T01:55:00.283Z,16.85
2022-11-18T01:57:30.868Z,18.50
2022-11-18T02:00:00.719Z,15.43
2022-11-18T02:02:29.417Z,16.23
2022-11-18T02:04:59.400Z,17.60
2022-11-18T02:07:28.460Z,18.90
2022-11-18T02:09:57.540Z,16.73
2022-11-18T02:12:25.750Z,14.90
2022-11-18T02:14:54.260Z,13.65
2022-11-18T02:17:34.309Z,13.68
2022-11-18T02:20:35.260Z,16.30
2022-11-18T02:23:45.260Z,14.97
2022-11-18T02:27:01.143Z,14.73
2022-11-18T02:29:33.644Z,17.25
2022-11-18T02:32:03.628Z,14.30
2022-11-18T02:34:41.151Z,14.30
2022-11-18T02:37:15.217Z,16.27
2022-11-18T02:39:46.344Z,15.80
2022-11-18T02:44:49.877Z,17.13
2022-11-18T02:47:18.664Z,13.10
2022-11-18T02:49:50.022Z,15.65
2022-11-18T02:52:20.468Z,14.60
2022-11-18T02:54:49.298Z,15.77
2022-11-18T02:57:17.866Z,16.40
2022-11-18T02:59:47.533Z,16.48
2022-11-18T03:02:18.068Z,12.68
2022-11-18T03:04:47.865Z,15.27
2022-11-18T03:07:19.484Z,16.67
2022-11-18T03:09:49.493Z,19.75
2022-11-18T03:12:23.781Z,16.40
2022-11-18T03:15:00.448Z,21.27
2022-11-18T03:17:36.054Z,16.63
2022-11-18T03:20:13.500Z,17.40
2022-11-18T03:22:44.756Z,15.05
2022-11-18T03:25:15.508Z,19.85
2022-11-18T03:27:48.190Z,20.90
2022-11-18T03:30:21.173Z,20.73
2022-11-18T03:32:52.879Z,18.15
2022-11-18T03:40:24.029Z,16.55
2022-11-18T03:42:54.888Z,17.80
2022-11-18T03:45:27.262Z,16.13
2022-11-18T03:47:58.255Z,14.30
2022-11-18T03:50:29.263Z,15.30
2022-11-18T03:55:30.108Z,15.18
2022-11-18T03:58:03.279Z,16.77
2022-11-18T04:00:36.592Z,16.08
2022-11-18T04:03:05.267Z,14.30
2022-11-18T04:05:36.163Z,17.02
2022-11-18T04:08:06.625Z,13.00
2022-11-18T04:10:36.948Z,15.95
2022-11-18T04:13:08.912Z,16.58
2022-11-18T04:15:41.601Z,15.07
2022-11-18T04:18:10.852Z,13.35
2022-11-18T04:20:39.222Z,19.40
2022-11-18T04:23:08.837Z,16.02
2022-11-18T04:25:37.314Z,16.20
2022-11-18T04:28:06.054Z,19.73
2022-11-18T04:30:34.434Z,14.82
2022-11-18T04:33:07.363Z,22.92
2022-11-18T04:35:35.532Z,19.52
2022-11-18T04:38:05.038Z,18.15
2022-11-18T04:40:33.275Z,18.80
2022-11-18T04:43:01.769Z,17.70
2022-11-18T04:45:29.886Z,21.20
2022-11-18T04:48:03.307Z,17.42
2022-11-18T04:50:33.256Z,20.42
2022-11-18T04:53:01.634Z,22.42
2022-11-18T04:55:29.634Z,20.52
2022-11-18T04:57:58.096Z,20.00
2022-11-18T05:00:26.179Z,20.23
2022-11-18T05:02:54.745Z,17.00
2022-11-18T05:05:22.937Z,22.30
2022-11-18T05:07:53.389Z,21.02
2022-11-18T05:10:21.395Z,18.15
2022-11-18T05:12:48.852Z,21.38
2022-11-18T05:15:17.545Z,19.40
2022-11-18T05:17:46.079Z,18.52
2022-11-18T05:20:14.652Z,17.30
2022-11-18T05:22:42.915Z,16.55
2022-11-18T05:25:12.430Z,18.92
2022-11-18T05:27:40.745Z,20.67
2022-11-18T05:30:10.162Z,17.30
2022-11-18T05:32:38.477Z,17.52
2022-11-18T05:35:07.448Z,17.33
2022-11-18T05:37:35.868Z,19.77
2022-11-18T05:40:04.443Z,19.60
2022-11-18T05:42:51.329Z,20.48
2022-11-18T05:45:20.672Z,19.98
2022-11-18T05:48:01.252Z,20.05
2022-11-18T05:50:29.361Z,22.20
2022-11-18T05:52:57.801Z,18.20
2022-11-18T05:55:30.955Z,21.73
2022-11-18T05:58:00.771Z,22.33
2022-11-18T06:00:28.975Z,21.35
2022-11-18T06:02:58.141Z,25.75
2022-11-18T06:05:27.809Z,25.77
2022-11-18T06:07:57.229Z,20.02
2022-11-18T06:10:27.641Z,22.73
2022-11-18T06:12:57.925Z,22.27
2022-11-18T06:15:29.796Z,21.92
2022-11-18T06:18:00.865Z,22.45
2022-11-18T06:20:29.386Z,23.02
2022-11-18T06:22:58.723Z,24.85
2022-11-18T06:25:27.029Z,27.45
2022-11-18T06:27:56.825Z,22.45
2022-11-18T06:30:25.147Z,24.45
2022-11-18T06:32:54.911Z,26.00
2022-11-18T06:35:23.056Z,24.70
2022-11-18T06:37:51.697Z,25.88
2022-11-18T06:40:20.030Z,30.08
2022-11-18T06:43:05.967Z,26.70
2022-11-18T06:45:36.609Z,26.58
2022-11-18T06:48:06.062Z,29.05
2022-11-18T06:50:34.109Z,28.30
2022-11-18T06:53:02.480Z,30.90
2022-11-18T06:55:30.589Z,29.83
2022-11-18T06:57:59.013Z,32.20
2022-11-18T07:00:27.179Z,35.50
2022-11-18T07:02:55.686Z,35.90
2022-11-18T07:05:25.066Z,35.38
2022-11-18T07:07:53.465Z,28.60
2022-11-18T07:10:21.649Z,25.38
2022-11-18T07:12:50.159Z,24.67
2022-11-18T07:15:18.496Z,23.77
2022-11-18T07:17:46.970Z,22.25
2022-11-18T07:20:15.208Z,25.08
2022-11-18T07:22:45.035Z,20.35
2022-11-18T07:25:13.102Z,31.98
2022-11-18T07:27:41.759Z,27.17
2022-11-18T07:30:10.731Z,25.77
2022-11-18T07:32:39.224Z,24.63
2022-11-18T07:35:08.284Z,30.10
2022-11-18T07:37:36.695Z,26.83
2022-11-18T07:40:07.710Z,27.45
2022-11-18T07:45:12.309Z,20.73
2022-11-18T07:47:40.746Z,21.73
2022-11-18T07:50:09.510Z,27.98
2022-11-18T07:52:37.865Z,28.10
2022-11-18T07:55:08.066Z,29.67
2022-11-18T07:57:36.467Z,32.33
2022-11-18T08:00:05.987Z,25.70
2022-11-18T08:02:34.603Z,29.92
2022-11-18T08:05:02.967Z,24.42
2022-11-18T08:07:31.469Z,28.35
2022-11-18T08:09:59.528Z,26.73
2022-11-18T08:12:30.826Z,32.78
2022-11-18T08:14:59.057Z,27.00
2022-11-18T08:17:27.590Z,31.98
2022-11-18T08:19:55.886Z,27.92
2022-11-18T08:22:24.626Z,26.35
2022-11-18T08:24:52.759Z,27.88
2022-11-18T08:27:21.466Z,26.13
2022-11-18T08:29:51.009Z,44.33
2022-11-18T08:32:20.037Z,34.22
2022-11-18T08:34:48.120Z,31.58
2022-11-18T08:37:16.594Z,22.85
2022-11-18T08:39:44.884Z,29.40
2022-11-18T08:42:13.383Z,25.80
2022-11-18T08:44:41.455Z,29.02
2022-11-18T08:47:11.476Z,35.55
2022-11-18T08:49:39.717Z,32.63
2022-11-18T08:52:08.188Z,38.88
2022-11-18T08:54:36.405Z,25.63
2022-11-18T08:57:05.082Z,40.15
2022-11-18T08:59:33.429Z,27.55
2022-11-18T09:02:02.043Z,31.17
2022-11-18T09:04:31.848Z,35.05
2022-11-18T09:07:00.431Z,23.17
2022-11-18T09:09:28.812Z,23.23
2022-11-18T09:11:57.377Z,20.90
2022-11-18T09:17:15.356Z,26.52
2022-11-18T09:20:05.878Z,22.38
2022-11-18T09:22:33.953Z,24.05
2022-11-18T09:25:02.500Z,26.73
2022-11-18T09:27:30.567Z,26.40
2022-11-18T09:29:59.017Z,22.73
2022-11-18T09:32:27.227Z,24.15
2022-11-18T09:34:55.795Z,22.25
2022-11-18T09:37:25.265Z,29.60
2022-11-18T09:39:53.773Z,30.02
2022-11-18T09:42:31.247Z,24.85
2022-11-18T09:45:14.058Z,24.02
2022-11-18T09:47:44.314Z,24.80
2022-11-18T09:50:47.424Z,31.00
2022-11-18T09:53:12.424Z,28.40
2022-11-18T09:55:41.940Z,30.60
2022-11-18T09:58:16.744Z,32.92
2022-11-18T10:00:46.887Z,30.08
2022-11-18T10:03:18.914Z,31.45
2022-11-18T10:05:50.318Z,33.97
2022-11-18T10:08:23.708Z,35.35
2022-11-18T10:10:59.525Z,32.92
2022-11-18T10:13:36.766Z,36.08
2022-11-18T10:16:11.497Z,31.48
2022-11-18T10:18:59.767Z,32.70
2022-11-18T10:21:39.194Z,36.40
2022-11-18T10:24:14.581Z,42.05
2022-11-18T10:26:43.427Z,29.52
2022-11-18T10:29:11.704Z,29.90
2022-11-18T10:31:40.764Z,35.85
2022-11-18T10:34:12.196Z,31.88
2022-11-18T10:36:41.575Z,32.63
2022-11-18T10:39:13.434Z,30.55
2022-11-18T10:41:46.414Z,28.40
2022-11-18T10:44:38.392Z,27.35
2022-11-18T10:47:18.482Z,27.83
2022-11-18T10:49:47.138Z,29.40
2022-11-18T10:52:16.469Z,29.63
2022-11-18T10:54:46.015Z,32.08
2022-11-18T10:57:17.738Z,30.45
2022-11-18T11:02:18.867Z,30.05
2022-11-18T11:04:47.821Z,29.13
2022-11-18T11:07:27.144Z,33.05
2022-11-18T11:10:09.027Z,35.08
2022-11-18T11:12:39.020Z,32.63
2022-11-18T11:15:12.442Z,29.63
2022-11-18T11:17:44.109Z,41.40
2022-11-18T11:20:19.563Z,35.25
2022-11-18T11:22:48.101Z,30.83
2022-11-18T11:25:19.578Z,30.30
2022-11-18T11:30:46.488Z,29.10
2022-11-18T11:33:28.398Z,26.92
2022-11-18T11:36:05.119Z,31.85
2022-11-18T11:38:42.400Z,35.42
2022-11-18T11:41:17.206Z,29.85
2022-11-18T11:43:59.823Z,31.10
2022-11-18T11:46:39.440Z,30.77
2022-11-18T11:49:18.396Z,29.13
2022-11-18T11:51:50.416Z,31.35
2022-11-18T11:54:29.440Z,30.33
2022-11-18T11:57:00.574Z,34.63
2022-11-18T11:59:33.289Z,32.70
2022-11-18T12:02:26.513Z,30.88
2022-11-18T12:04:56.808Z,30.30
2022-11-18T12:07:29.190Z,32.03
2022-11-18T12:10:16.592Z,28.30
2022-11-18T12:12:53.256Z,30.00
2022-11-18T12:15:31.324Z,28.25
2022-11-18T12:18:06.545Z,31.88
2022-11-18T12:20:43.800Z,30.63
2022-11-18T12:23:14.156Z,26.20
2022-11-18T12:26:10.485Z,34.88
2022-11-18T12:28:42.242Z,35.75
2022-11-18T12:31:35.338Z,30.77
2022-11-18T12:34:06.186Z,34.03
2022-11-18T12:36:36.281Z,34.85
2022-11-18T12:39:47.510Z,31.23
2022-11-18T12:45:51.461Z,25.85
2022-11-18T12:48:47.037Z,25.85
2022-11-18T12:51:45.154Z,34.50
2022-11-18T12:54:34.784Z,52.47
2022-11-18T12:57:04.746Z,88.55
2022-11-18T12:59:37.616Z,60.30
2022-11-18T13:02:19.210Z,93.90
2022-11-18T13:04:52.138Z,98.43
2022-11-18T13:07:38.560Z,102.75
2022-11-18T13:10:21.364Z,38.80
2022-11-18T13:12:49.874Z,30.42
2022-11-18T13:15:37.240Z,29.80
2022-11-18T13:18:15.107Z,29.42
2022-11-18T13:20:44.277Z,28.95
2022-11-18T13:23:45.304Z,24.80
2022-11-18T13:26:20.451Z,26.13
2022-11-18T13:29:12.337Z,23.77
2022-11-18T13:31:45.434Z,31.13
2022-11-18T13:34:19.688Z,24.52
2022-11-18T13:36:49.915Z,24.27
2022-11-18T13:39:24.332Z,27.35
2022-11-18T13:42:06.382Z,22.60
2022-11-18T13:44:35.961Z,23.02
2022-11-18T13:47:12.845Z,23.55
2022-11-18T13:50:02.578Z,23.35
2022-11-18T13:52:33.698Z,24.48
2022-11-18T13:55:03.185Z,27.08
2022-11-18T13:57:31.820Z,24.15
2022-11-18T14:00:02.400Z,31.92
2022-11-18T14:02:33.431Z,25.00
2022-11-18T14:05:03.475Z,26.70
2022-11-18T14:07:34.084Z,26.95
2022-11-18T14:10:04.030Z,35.08
2022-11-18T14:12:33.870Z,32.60
2022-11-18T14:15:16.888Z,31.42
2022-11-18T14:17:56.045Z,33.55
2022-11-18T14:20:25.877Z,30.30
2022-11-18T14:22:56.148Z,28.92
2022-11-18T14:25:28.838Z,29.48
2022-11-18T14:27:58.390Z,27.92
2022-11-18T14:30:35.729Z,36.72
2022-11-18T14:33:18.721Z,36.08
2022-11-18T14:35:50.921Z,37.78
2022-11-18T14:41:11.695Z,26.85
2022-11-18T14:43:40.138Z,28.58
2022-11-18T14:46:14.105Z,27.60
2022-11-18T14:48:42.495Z,26.58
2022-11-18T14:51:15.189Z,28.98
2022-11-18T14:53:43.817Z,22.80
2022-11-18T14:56:16.022Z,25.98
2022-11-18T14:58:44.385Z,43.55
2022-11-18T15:01:13.852Z,114.47
2022-11-18T15:03:42.455Z,38.45
2022-11-18T15:06:16.333Z,27.70
2022-11-18T15:08:46.233Z,30.77
2022-11-18T15:11:14.997Z,26.17
2022-11-18T15:13:43.788Z,28.27
2022-11-18T15:16:15.081Z,26.30
2022-11-18T15:18:43.979Z,25.60
2022-11-18T15:21:12.293Z,22.40
2022-11-18T15:23:43.846Z,25.38
2022-11-18T15:26:18.055Z,23.55
2022-11-18T15:28:46.976Z,22.08
2022-11-18T15:31:15.138Z,28.30
2022-11-18T15:33:43.756Z,24.35
2022-11-18T15:36:14.223Z,37.95
2022-11-18T15:38:44.519Z,28.80
2022-11-18T15:41:17.612Z,28.77
2022-11-18T15:43:46.452Z,35.92
2022-11-18T15:46:14.931Z,37.20
2022-11-18T15:48:43.278Z,43.42
2022-11-18T15:51:12.260Z,36.17
2022-11-18T15:53:41.094Z,34.78
2022-11-18T15:56:18.175Z,30.30
2022-11-18T15:58:46.800Z,43.90
2022-11-18T16:01:15.043Z,41.60
2022-11-18T16:03:43.639Z,30.10
2022-11-18T16:06:11.763Z,37.15
2022-11-18T16:08:40.227Z,32.17
2022-11-18T16:11:26.371Z,37.92
2022-11-18T16:13:56.171Z,29.15
2022-11-18T16:16:27.408Z,32.08
2022-11-18T16:18:56.281Z,31.02
2022-11-18T16:21:24.870Z,27.17
2022-11-18T16:23:55.987Z,33.92
2022-11-18T16:26:24.155Z,35.95
2022-11-18T16:28:52.736Z,34.90
2022-11-18T16:31:40.000Z,31.35
2022-11-18T16:34:08.989Z,31.63
2022-11-18T16:36:37.362Z,33.75
2022-11-18T16:39:07.465Z,34.55
2022-11-18T16:41:35.911Z,34.33
2022-11-18T16:44:06.113Z,46.30
2022-11-18T16:46:37.089Z,54.85
2022-11-18T16:49:06.332Z,43.83
2022-11-18T16:51:35.433Z,39.08
2022-11-18T16:54:05.389Z,33.42
2022-11-18T16:56:34.939Z,32.97
2022-11-18T16:59:04.974Z,31.75
2022-11-18T17:01:36.446Z,32.63
2022-11-18T17:04:06.544Z,33.80
2022-11-18T17:06:34.746Z,32.50
2022-11-18T17:09:03.214Z,35.08
2022-11-18T17:11:31.427Z,31.02
2022-11-18T17:13:59.895Z,30.17
2022-11-18T17:16:28.315Z,32.92
2022-11-18T17:18:57.845Z,29.35
2022-11-18T17:21:28.444Z,31.10
2022-11-18T17:23:57.648Z,27.65
2022-11-18T17:26:27.532Z,29.75
2022-11-18T17:28:57.476Z,32.47
2022-11-18T17:31:26.315Z,30.52
2022-11-18T17:33:56.212Z,30.75
2022-11-18T17:36:25.844Z,33.55
2022-11-18T17:38:56.724Z,33.55
2022-11-18T17:41:43.653Z,33.17
2022-11-18T17:44:13.979Z,36.45
2022-11-18T17:46:42.863Z,37.40
2022-11-18T17:49:13.539Z,32.03
2022-11-18T17:51:41.879Z,30.43
2022-11-18T17:54:12.164Z,28.42
2022-11-18T17:56:40.643Z,34.40
2022-11-18T17:59:09.184Z,27.17
2022-11-18T18:01:37.522Z,30.80
2022-11-18T18:04:06.279Z,78.82
2022-11-18T18:06:34.400Z,34.00
2022-11-18T18:09:02.803Z,32.95
2022-11-18T18:11:32.421Z,36.53
2022-11-18T18:14:15.021Z,34.60
2022-11-18T18:16:45.138Z,32.67
2022-11-18T18:19:15.582Z,33.10
2022-11-18T18:21:43.730Z,39.67
2022-11-18T18:24:12.899Z,38.42
2022-11-18T18:26:44.076Z,45.35
2022-11-18T18:29:12.880Z,38.97
2022-11-18T18:31:42.427Z,31.90
2022-11-18T18:34:11.044Z,38.45
2022-11-18T18:36:39.303Z,33.38
2022-11-18T18:39:07.714Z,26.48
2022-11-18T18:41:36.487Z,29.95
2022-11-18T18:44:06.605Z,29.15
2022-11-18T18:46:33.877Z,23.77
2022-11-18T18:49:05.243Z,26.52
2022-11-18T18:51:36.202Z,33.97
2022-11-18T18:56:33.704Z,35.17
2022-11-18T18:59:02.913Z,20.88
2022-11-18T19:01:33.715Z,21.17
2022-11-18T19:06:54.875Z,21.00
2022-11-18T19:09:20.920Z,21.88
2022-11-18T19:12:06.462Z,22.48
2022-11-18T19:14:35.683Z,28.75
2022-11-18T19:17:10.573Z,24.42
2022-11-18T19:19:58.692Z,22.73
2022-11-18T19:22:27.169Z,34.53
2022-11-18T19:24:56.125Z,29.58
2022-11-18T19:27:24.828Z,34.08
2022-11-18T19:29:53.347Z,20.02
2022-11-18T19:32:23.446Z,18.63
2022-11-18T19:34:52.181Z,18.70
2022-11-18T19:37:20.408Z,15.98
2022-11-18T19:39:49.022Z,20.30
2022-11-18T19:42:17.110Z,19.15
2022-11-18T19:44:45.640Z,16.27
2022-11-18T19:47:13.714Z,20.10
2022-11-18T19:49:43.528Z,17.63
2022-11-18T19:52:11.828Z,18.85
2022-11-18T19:54:40.727Z,18.95
2022-11-18T19:57:09.131Z,20.23
2022-11-18T19:59:37.869Z,19.10
2022-11-18T20:02:06.146Z,20.38
2022-11-18T20:04:34.786Z,25.40
2022-11-18T20:07:04.870Z,21.30
2022-11-18T20:09:33.923Z,18.38
2022-11-18T20:12:02.171Z,18.67
2022-11-18T20:14:30.599Z,17.25
2022-11-18T20:16:58.788Z,16.65
2022-11-18T20:19:27.245Z,19.23
2022-11-18T20:21:55.580Z,24.17
2022-11-18T20:24:25.491Z,19.25
2022-11-18T20:26:53.634Z,15.40
2022-11-18T20:29:22.289Z,19.60
2022-11-18T20:31:50.832Z,15.77
2022-11-18T20:34:19.335Z,20.45
2022-11-18T20:36:51.885Z,19.77
2022-11-18T20:39:20.757Z,15.45
2022-11-18T20:42:07.147Z,18.85
2022-11-18T20:44:35.509Z,16.98
2022-11-18T20:47:03.740Z,16.00
2022-11-18T20:49:32.073Z,17.23
2022-11-18T20:52:00.178Z,14.68
2022-11-18T20:54:28.505Z,15.40
2022-11-18T20:56:58.110Z,15.40
2022-11-18T20:59:26.605Z,13.23
2022-11-18T21:01:54.866Z,14.88
2022-11-18T21:04:23.785Z,15.07
2022-11-18T21:06:57.547Z,13.13
2022-11-18T21:09:26.620Z,11.77
2022-11-18T21:11:54.982Z,11.77
2022-11-18T21:14:25.493Z,13.15
2022-11-18T21:16:55.452Z,13.60
2022-11-18T21:19:26.286Z,15.73
2022-11-18T21:21:53.792Z,16.33
2022-11-18T21:24:23.409Z,17.42
2022-11-18T21:26:54.782Z,17.95
2022-11-18T21:29:25.967Z,14.20
2022-11-18T21:31:54.872Z,19.02
2022-11-18T21:34:24.359Z,19.65
2022-11-18T21:36:54.923Z,22.77
2022-11-18T21:41:57.087Z,22.92
2022-11-18T21:44:28.830Z,22.90
2022-11-18T21:46:57.687Z,23.02
2022-11-18T21:49:26.481Z,23.20
2022-11-18T21:51:54.593Z,26.27
2022-11-18T21:54:23.062Z,25.42
2022-11-18T21:56:51.233Z,26.58
2022-11-18T21:59:19.729Z,25.23
2022-11-18T22:01:49.329Z,25.17
2022-11-18T22:04:31.620Z,26.95
2022-11-18T22:06:59.833Z,25.52
2022-11-18T22:09:34.527Z,26.83
2022-11-18T22:12:04.323Z,24.92
2022-11-18T22:14:32.911Z,25.55
2022-11-18T22:17:02.327Z,25.38
2022-11-18T22:19:30.816Z,28.73
2022-11-18T22:21:59.034Z,27.00
2022-11-18T22:24:27.401Z,28.45
2022-11-18T22:26:55.459Z,24.27
2022-11-18T22:29:26.164Z,25.75
2022-11-18T22:31:54.465Z,25.25
2022-11-18T22:34:24.356Z,29.58
2022-11-18T22:36:52.492Z,27.13
2022-11-18T22:39:21.426Z,26.52
2022-11-18T22:42:07.408Z,28.70
2022-11-18T22:44:36.498Z,25.23
2022-11-18T22:47:04.766Z,25.08
2022-11-18T22:49:34.634Z,22.73
2022-11-18T22:52:03.507Z,21.70
2022-11-18T22:54:38.838Z,21.90
2022-11-18T22:57:08.171Z,25.20
2022-11-18T22:59:36.564Z,21.95
2022-11-18T23:02:04.837Z,24.88
2022-11-18T23:04:34.826Z,24.25
2022-11-18T23:07:03.126Z,22.77
2022-11-18T23:09:31.734Z,23.08
2022-11-18T23:12:17.279Z,21.65
2022-11-18T23:14:45.674Z,18.50
2022-11-18T23:17:13.772Z,20.25
2022-11-18T23:19:44.004Z,21.35
2022-11-18T23:22:12.560Z,20.58
2022-11-18T23:24:41.100Z,19.77
2022-11-18T23:27:09.187Z,16.45
2022-11-18T23:29:37.514Z,17.67
2022-11-18T23:32:06.079Z,15.80
2022-11-18T23:34:34.630Z,18.60
2022-11-18T23:37:04.158Z,13.27
2022-11-18T23:39:32.582Z,15.35
2022-11-18T23:42:00.684Z,14.50
2022-11-18T23:44:47.553Z,12.00
2022-11-18T23:47:15.664Z,14.23
2022-11-18T23:49:43.973Z,13.98
2022-11-18T23:52:15.018Z,14.48
2022-11-18T23:57:11.220Z,15.15
2022-11-18T23:59:39.679Z,13.80
